sensor_id;sensor_type;location;lat;lon;timestamp;temperature;humidity
9448;DHT22;4762;48.128;11.376;2023-07-13T00:01:19;18.00;99.90
9448;DHT22;4762;48.128;11.376;2023-07-13T00:03:21;18.00;99.90
9448;DHT22;4762;48.128;11.376;2023-07-13T00:05:24;18.00;99.90
9448;DHT22;4762;48.128;11.376;2023-07-13T00:07:26;18.10;99.90
9448;DHT22;4762;48.128;11.376;2023-07-13T00:09:28;18.10;99.90
9448;DHT22;4762;48.128;11.376;2023-07-13T00:11:30;18.10;99.90
9448;DHT22;4762;48.128;11.376;2023-07-13T00:13:32;18.10;99.90
9448;DHT22;4762;48.128;11.376;2023-07-13T00:15:34;18.10;99.90
9448;DHT22;4762;48.128;11.376;2023-07-13T00:17:37;18.10;99.90
9448;DHT22;4762;48.128;11.376;2023-07-13T00:19:39;18.20;99.90
9448;DHT22;4762;48.128;11.376;2023-07-13T00:21:41;18.20;99.90
9448;DHT22;4762;48.128;11.376;2023-07-13T00:23:43;18.20;99.90
9448;DHT22;4762;48.128;11.376;2023-07-13T00:25:45;18.20;99.90
9448;DHT22;4762;48.128;11.376;2023-07-13T00:27:48;18.20;99.90
9448;DHT22;4762;48.128;11.376;2023-07-13T00:29:52;18.30;99.90
9448;DHT22;4762;48.128;11.376;2023-07-13T00:31:55;18.20;99.90
9448;DHT22;4762;48.128;11.376;2023-07-13T00:33:57;18.20;99.90
9448;DHT22;4762;48.128;11.376;2023-07-13T00:35:59;18.30;99.90
9448;DHT22;4762;48.128;11.376;2023-07-13T00:38:01;18.30;99.90
9448;DHT22;4762;48.128;11.376;2023-07-13T00:40:04;18.30;99.90
9448;DHT22;4762;48.128;11.376;2023-07-13T00:42:06;18.20;99.90
9448;DHT22;4762;48.128;11.376;2023-07-13T00:44:16;18.30;99.90
9448;DHT22;4762;48.128;11.376;2023-07-13T00:46:22;18.20;99.90
9448;DHT22;4762;48.128;11.376;2023-07-13T00:48:24;18.30;99.90
9448;DHT22;4762;48.128;11.376;2023-07-13T00:50:25;18.30;99.90
9448;DHT22;4762;48.128;11.376;2023-07-13T00:52:27;18.30;99.90
9448;DHT22;4762;48.128;11.376;2023-07-13T00:54:32;18.30;99.90
9448;DHT22;4762;48.128;11.376;2023-07-13T00:56:33;18.30;99.90
9448;DHT22;4762;48.128;11.376;2023-07-13T00:58:35;18.40;99.90
9448;DHT22;4762;48.128;11.376;2023-07-13T01:00:37;18.20;99.90
9448;DHT22;4762;48.128;11.376;2023-07-13T01:02:40;18.20;99.90
9448;DHT22;4762;48.128;11.376;2023-07-13T01:04:42;18.20;99.90
9448;DHT22;4762;48.128;11.376;2023-07-13T01:06:44;18.10;99.90
9448;DHT22;4762;48.128;11.376;2023-07-13T01:08:46;18.20;99.90
9448;DHT22;4762;48.128;11.376;2023-07-13T01:10:53;18.20;99.90
9448;DHT22;4762;48.128;11.376;2023-07-13T01:12:54;18.30;99.90
9448;DHT22;4762;48.128;11.376;2023-07-13T01:14:57;18.30;99.90
9448;DHT22;4762;48.128;11.376;2023-07-13T01:16:58;18.30;99.90
9448;DHT22;4762;48.128;11.376;2023-07-13T01:19:01;18.30;99.90
9448;DHT22;4762;48.128;11.376;2023-07-13T01:21:03;18.30;99.90
9448;DHT22;4762;48.128;11.376;2023-07-13T01:23:07;18.10;99.90
9448;DHT22;4762;48.128;11.376;2023-07-13T01:25:08;18.20;99.90
9448;DHT22;4762;48.128;11.376;2023-07-13T01:27:12;18.20;99.90
9448;DHT22;4762;48.128;11.376;2023-07-13T01:29:13;18.30;99.90
9448;DHT22;4762;48.128;11.376;2023-07-13T01:31:15;18.20;99.90
9448;DHT22;4762;48.128;11.376;2023-07-13T01:33:18;18.20;99.90
9448;DHT22;4762;48.128;11.376;2023-07-13T01:35:20;18.20;99.90
9448;DHT22;4762;48.128;11.376;2023-07-13T01:37:24;18.20;99.90
9448;DHT22;4762;48.128;11.376;2023-07-13T01:39:25;18.30;99.90
9448;DHT22;4762;48.128;11.376;2023-07-13T01:41:27;18.10;99.90
9448;DHT22;4762;48.128;11.376;2023-07-13T01:43:30;18.20;99.90
9448;DHT22;4762;48.128;11.376;2023-07-13T01:45:32;18.20;99.90
9448;DHT22;4762;48.128;11.376;2023-07-13T01:47:34;18.20;99.90
9448;DHT22;4762;48.128;11.376;2023-07-13T01:49:36;18.20;99.90
9448;DHT22;4762;48.128;11.376;2023-07-13T01:51:38;18.30;99.90
9448;DHT22;4762;48.128;11.376;2023-07-13T01:53:41;18.30;99.90
9448;DHT22;4762;48.128;11.376;2023-07-13T01:55:43;18.40;99.90
9448;DHT22;4762;48.128;11.376;2023-07-13T01:57:45;18.50;99.90
9448;DHT22;4762;48.128;11.376;2023-07-13T01:59:47;18.40;99.90
9448;DHT22;4762;48.128;11.376;2023-07-13T02:01:50;18.40;99.90
9448;DHT22;4762;48.128;11.376;2023-07-13T02:03:52;18.50;99.90
9448;DHT22;4762;48.128;11.376;2023-07-13T02:05:54;18.60;99.90
9448;DHT22;4762;48.128;11.376;2023-07-13T02:07:56;18.60;99.90
9448;DHT22;4762;48.128;11.376;2023-07-13T02:09:58;18.50;99.90
9448;DHT22;4762;48.128;11.376;2023-07-13T02:12:01;18.50;99.90
9448;DHT22;4762;48.128;11.376;2023-07-13T02:14:03;18.50;99.90
9448;DHT22;4762;48.128;11.376;2023-07-13T02:16:05;18.40;99.90
9448;DHT22;4762;48.128;11.376;2023-07-13T02:18:07;18.40;99.90
9448;DHT22;4762;48.128;11.376;2023-07-13T02:20:10;18.40;99.90
9448;DHT22;4762;48.128;11.376;2023-07-13T02:22:12;18.40;99.90
9448;DHT22;4762;48.128;11.376;2023-07-13T02:24:14;18.40;99.90
9448;DHT22;4762;48.128;11.376;2023-07-13T02:26:16;18.30;99.90
9448;DHT22;4762;48.128;11.376;2023-07-13T02:28:18;18.40;99.90
9448;DHT22;4762;48.128;11.376;2023-07-13T02:30:23;18.40;99.90
9448;DHT22;4762;48.128;11.376;2023-07-13T02:32:48;18.30;99.90
9448;DHT22;4762;48.128;11.376;2023-07-13T02:34:50;18.20;99.90
9448;DHT22;4762;48.128;11.376;2023-07-13T02:36:52;18.20;99.90
9448;DHT22;4762;48.128;11.376;2023-07-13T02:38:55;18.20;99.90
9448;DHT22;4762;48.128;11.376;2023-07-13T02:40:57;18.10;99.90
9448;DHT22;4762;48.128;11.376;2023-07-13T02:42:59;18.00;99.90
9448;DHT22;4762;48.128;11.376;2023-07-13T02:45:01;17.90;99.90
9448;DHT22;4762;48.128;11.376;2023-07-13T02:47:03;17.80;99.90
9448;DHT22;4762;48.128;11.376;2023-07-13T02:49:06;17.70;99.90
9448;DHT22;4762;48.128;11.376;2023-07-13T02:51:08;17.70;99.90
9448;DHT22;4762;48.128;11.376;2023-07-13T02:53:10;17.70;99.90
9448;DHT22;4762;48.128;11.376;2023-07-13T02:55:12;17.40;99.90
9448;DHT22;4762;48.128;11.376;2023-07-13T02:57:15;17.30;99.90
9448;DHT22;4762;48.128;11.376;2023-07-13T02:59:17;17.40;99.90
9448;DHT22;4762;48.128;11.376;2023-07-13T03:01:19;17.30;99.90
9448;DHT22;4762;48.128;11.376;2023-07-13T03:03:21;17.20;99.90
9448;DHT22;4762;48.128;11.376;2023-07-13T03:05:24;17.00;99.90
9448;DHT22;4762;48.128;11.376;2023-07-13T03:07:26;16.90;99.90
9448;DHT22;4762;48.128;11.376;2023-07-13T03:09:29;16.90;99.90
9448;DHT22;4762;48.128;11.376;2023-07-13T03:11:31;16.80;99.90
9448;DHT22;4762;48.128;11.376;2023-07-13T03:13:34;16.90;99.90
9448;DHT22;4762;48.128;11.376;2023-07-13T03:15:37;17.00;99.90
9448;DHT22;4762;48.128;11.376;2023-07-13T03:17:39;17.10;99.90
9448;DHT22;4762;48.128;11.376;2023-07-13T03:19:42;17.10;99.90
9448;DHT22;4762;48.128;11.376;2023-07-13T03:21:44;17.20;99.90
9448;DHT22;4762;48.128;11.376;2023-07-13T03:23:46;17.20;99.90
9448;DHT22;4762;48.128;11.376;2023-07-13T03:25:49;17.20;99.90
9448;DHT22;4762;48.128;11.376;2023-07-13T03:27:51;17.20;99.90
9448;DHT22;4762;48.128;11.376;2023-07-13T03:29:54;17.20;99.90
9448;DHT22;4762;48.128;11.376;2023-07-13T03:31:56;17.30;99.90
9448;DHT22;4762;48.128;11.376;2023-07-13T03:33:58;17.20;99.90
9448;DHT22;4762;48.128;11.376;2023-07-13T03:36:01;17.20;99.90
9448;DHT22;4762;48.128;11.376;2023-07-13T03:38:03;17.20;99.90
9448;DHT22;4762;48.128;11.376;2023-07-13T03:40:06;17.20;99.90
9448;DHT22;4762;48.128;11.376;2023-07-13T03:42:08;17.30;99.90
9448;DHT22;4762;48.128;11.376;2023-07-13T03:44:11;17.30;99.90
9448;DHT22;4762;48.128;11.376;2023-07-13T03:46:12;17.20;99.90
9448;DHT22;4762;48.128;11.376;2023-07-13T03:48:15;17.30;99.90
9448;DHT22;4762;48.128;11.376;2023-07-13T03:50:17;17.20;99.90
9448;DHT22;4762;48.128;11.376;2023-07-13T03:52:19;17.30;99.90
9448;DHT22;4762;48.128;11.376;2023-07-13T03:54:21;17.20;99.90
9448;DHT22;4762;48.128;11.376;2023-07-13T03:56:25;17.30;99.90
9448;DHT22;4762;48.128;11.376;2023-07-13T03:58:35;17.20;99.90
9448;DHT22;4762;48.128;11.376;2023-07-13T04:00:39;17.30;99.90
9448;DHT22;4762;48.128;11.376;2023-07-13T04:02:42;17.30;99.90
9448;DHT22;4762;48.128;11.376;2023-07-13T04:04:44;17.40;99.90
9448;DHT22;4762;48.128;11.376;2023-07-13T04:06:47;17.40;99.90
9448;DHT22;4762;48.128;11.376;2023-07-13T04:08:50;17.40;99.90
9448;DHT22;4762;48.128;11.376;2023-07-13T04:10:51;17.40;99.90
9448;DHT22;4762;48.128;11.376;2023-07-13T04:12:54;17.50;99.90
9448;DHT22;4762;48.128;11.376;2023-07-13T04:14:57;17.50;99.90
9448;DHT22;4762;48.128;11.376;2023-07-13T04:17:00;17.50;99.90
9448;DHT22;4762;48.128;11.376;2023-07-13T04:19:02;17.60;99.90
9448;DHT22;4762;48.128;11.376;2023-07-13T04:21:04;17.60;99.90
9448;DHT22;4762;48.128;11.376;2023-07-13T04:23:07;17.60;99.90
9448;DHT22;4762;48.128;11.376;2023-07-13T04:25:09;17.70;99.90
9448;DHT22;4762;48.128;11.376;2023-07-13T04:27:11;17.60;99.90
9448;DHT22;4762;48.128;11.376;2023-07-13T04:29:13;17.60;99.90
9448;DHT22;4762;48.128;11.376;2023-07-13T04:31:16;17.70;99.90
9448;DHT22;4762;48.128;11.376;2023-07-13T04:33:18;17.80;99.90
9448;DHT22;4762;48.128;11.376;2023-07-13T04:35:20;17.90;99.90
9448;DHT22;4762;48.128;11.376;2023-07-13T04:37:22;18.00;99.90
9448;DHT22;4762;48.128;11.376;2023-07-13T04:39:25;17.80;99.90
9448;DHT22;4762;48.128;11.376;2023-07-13T04:41:27;17.70;99.90
9448;DHT22;4762;48.128;11.376;2023-07-13T04:43:29;17.70;99.90
9448;DHT22;4762;48.128;11.376;2023-07-13T04:45:31;17.70;99.90
9448;DHT22;4762;48.128;11.376;2023-07-13T04:47:33;17.80;99.90
9448;DHT22;4762;48.128;11.376;2023-07-13T04:49:36;17.80;99.90
9448;DHT22;4762;48.128;11.376;2023-07-13T04:51:38;17.80;99.90
9448;DHT22;4762;48.128;11.376;2023-07-13T04:53:40;17.90;99.90
9448;DHT22;4762;48.128;11.376;2023-07-13T04:55:42;17.80;99.90
9448;DHT22;4762;48.128;11.376;2023-07-13T04:57:45;17.80;99.90
9448;DHT22;4762;48.128;11.376;2023-07-13T04:59:47;17.80;99.90
9448;DHT22;4762;48.128;11.376;2023-07-13T05:01:49;17.80;99.90
9448;DHT22;4762;48.128;11.376;2023-07-13T05:03:52;17.80;99.90
9448;DHT22;4762;48.128;11.376;2023-07-13T05:05:58;17.90;99.90
9448;DHT22;4762;48.128;11.376;2023-07-13T05:07:59;17.90;99.90
9448;DHT22;4762;48.128;11.376;2023-07-13T05:10:02;17.90;99.90
9448;DHT22;4762;48.128;11.376;2023-07-13T05:12:04;17.90;99.90
9448;DHT22;4762;48.128;11.376;2023-07-13T05:14:06;18.00;99.90
9448;DHT22;4762;48.128;11.376;2023-07-13T05:16:08;18.00;99.90
9448;DHT22;4762;48.128;11.376;2023-07-13T05:18:11;18.10;99.90
9448;DHT22;4762;48.128;11.376;2023-07-13T05:20:13;18.10;99.90
9448;DHT22;4762;48.128;11.376;2023-07-13T05:22:15;18.00;99.90
9448;DHT22;4762;48.128;11.376;2023-07-13T05:24:17;18.00;99.90
9448;DHT22;4762;48.128;11.376;2023-07-13T05:26:19;18.00;99.90
9448;DHT22;4762;48.128;11.376;2023-07-13T05:28:23;18.00;99.90
9448;DHT22;4762;48.128;11.376;2023-07-13T05:30:25;17.90;99.90
9448;DHT22;4762;48.128;11.376;2023-07-13T05:32:27;18.00;99.90
9448;DHT22;4762;48.128;11.376;2023-07-13T05:34:29;18.00;99.90
9448;DHT22;4762;48.128;11.376;2023-07-13T05:36:31;17.90;99.90
9448;DHT22;4762;48.128;11.376;2023-07-13T05:38:34;18.00;99.90
9448;DHT22;4762;48.128;11.376;2023-07-13T05:40:36;18.20;99.90
9448;DHT22;4762;48.128;11.376;2023-07-13T05:42:38;18.40;99.90
9448;DHT22;4762;48.128;11.376;2023-07-13T05:44:40;19.30;99.90
9448;DHT22;4762;48.128;11.376;2023-07-13T05:46:42;20.10;99.90
9448;DHT22;4762;48.128;11.376;2023-07-13T05:48:45;21.90;99.90
9448;DHT22;4762;48.128;11.376;2023-07-13T05:50:47;21.10;99.90
9448;DHT22;4762;48.128;11.376;2023-07-13T05:52:50;20.20;99.90
9448;DHT22;4762;48.128;11.376;2023-07-13T05:54:53;19.50;99.90
9448;DHT22;4762;48.128;11.376;2023-07-13T05:56:55;19.20;99.90
9448;DHT22;4762;48.128;11.376;2023-07-13T05:58:57;19.10;99.90
9448;DHT22;4762;48.128;11.376;2023-07-13T06:01:01;19.00;99.90
9448;DHT22;4762;48.128;11.376;2023-07-13T06:03:02;19.00;99.90
9448;DHT22;4762;48.128;11.376;2023-07-13T06:05:05;19.00;99.90
9448;DHT22;4762;48.128;11.376;2023-07-13T06:07:07;19.00;99.90
9448;DHT22;4762;48.128;11.376;2023-07-13T06:09:09;19.00;99.90
9448;DHT22;4762;48.128;11.376;2023-07-13T06:11:15;19.10;99.90
9448;DHT22;4762;48.128;11.376;2023-07-13T06:13:15;19.80;99.90
9448;DHT22;4762;48.128;11.376;2023-07-13T06:15:17;20.30;99.90
9448;DHT22;4762;48.128;11.376;2023-07-13T06:17:19;20.20;99.90
9448;DHT22;4762;48.128;11.376;2023-07-13T06:19:21;20.20;99.90
9448;DHT22;4762;48.128;11.376;2023-07-13T06:21:23;20.10;99.90
9448;DHT22;4762;48.128;11.376;2023-07-13T06:23:26;19.90;99.90
9448;DHT22;4762;48.128;11.376;2023-07-13T06:25:28;20.00;99.90
9448;DHT22;4762;48.128;11.376;2023-07-13T06:27:30;19.80;99.90
9448;DHT22;4762;48.128;11.376;2023-07-13T06:29:32;19.70;99.90
9448;DHT22;4762;48.128;11.376;2023-07-13T06:31:35;19.50;99.90
9448;DHT22;4762;48.128;11.376;2023-07-13T06:33:37;19.20;99.90
9448;DHT22;4762;48.128;11.376;2023-07-13T06:35:39;19.00;99.90
9448;DHT22;4762;48.128;11.376;2023-07-13T06:37:41;18.80;99.90
9448;DHT22;4762;48.128;11.376;2023-07-13T06:39:43;18.90;99.90
9448;DHT22;4762;48.128;11.376;2023-07-13T06:41:46;19.00;99.90
9448;DHT22;4762;48.128;11.376;2023-07-13T06:43:48;18.90;99.90
9448;DHT22;4762;48.128;11.376;2023-07-13T06:45:50;19.00;99.90
9448;DHT22;4762;48.128;11.376;2023-07-13T06:47:52;19.00;99.90
9448;DHT22;4762;48.128;11.376;2023-07-13T06:49:55;18.80;99.90
9448;DHT22;4762;48.128;11.376;2023-07-13T06:51:57;19.00;99.90
9448;DHT22;4762;48.128;11.376;2023-07-13T06:53:59;19.10;99.90
9448;DHT22;4762;48.128;11.376;2023-07-13T06:56:01;18.90;99.90
9448;DHT22;4762;48.128;11.376;2023-07-13T06:58:04;19.00;99.90
9448;DHT22;4762;48.128;11.376;2023-07-13T07:00:06;19.00;99.90
9448;DHT22;4762;48.128;11.376;2023-07-13T07:02:10;19.00;99.90
9448;DHT22;4762;48.128;11.376;2023-07-13T07:04:11;18.80;99.90
9448;DHT22;4762;48.128;11.376;2023-07-13T07:06:15;18.70;99.90
9448;DHT22;4762;48.128;11.376;2023-07-13T07:08:16;18.60;99.90
9448;DHT22;4762;48.128;11.376;2023-07-13T07:10:18;18.70;99.90
9448;DHT22;4762;48.128;11.376;2023-07-13T07:12:20;18.50;99.90
9448;DHT22;4762;48.128;11.376;2023-07-13T07:14:23;18.50;99.90
9448;DHT22;4762;48.128;11.376;2023-07-13T07:16:25;18.70;99.90
9448;DHT22;4762;48.128;11.376;2023-07-13T07:18:27;18.60;99.90
9448;DHT22;4762;48.128;11.376;2023-07-13T07:20:29;18.80;99.90
9448;DHT22;4762;48.128;11.376;2023-07-13T07:22:31;18.60;99.90
9448;DHT22;4762;48.128;11.376;2023-07-13T07:24:34;18.90;99.90
9448;DHT22;4762;48.128;11.376;2023-07-13T07:26:36;18.80;99.90
9448;DHT22;4762;48.128;11.376;2023-07-13T07:28:38;18.90;99.90
9448;DHT22;4762;48.128;11.376;2023-07-13T07:30:42;19.00;99.90
9448;DHT22;4762;48.128;11.376;2023-07-13T07:32:44;18.90;99.90
9448;DHT22;4762;48.128;11.376;2023-07-13T07:34:46;19.00;99.90
9448;DHT22;4762;48.128;11.376;2023-07-13T07:36:49;19.00;99.90
9448;DHT22;4762;48.128;11.376;2023-07-13T07:38:51;19.20;99.90
9448;DHT22;4762;48.128;11.376;2023-07-13T07:40:53;19.10;99.90
9448;DHT22;4762;48.128;11.376;2023-07-13T07:42:58;19.20;99.90
9448;DHT22;4762;48.128;11.376;2023-07-13T07:45:00;19.40;99.90
9448;DHT22;4762;48.128;11.376;2023-07-13T07:47:02;19.10;99.90
9448;DHT22;4762;48.128;11.376;2023-07-13T07:49:05;19.10;99.90
9448;DHT22;4762;48.128;11.376;2023-07-13T07:51:07;18.70;99.90
9448;DHT22;4762;48.128;11.376;2023-07-13T07:53:10;18.80;99.90
9448;DHT22;4762;48.128;11.376;2023-07-13T07:55:11;18.50;99.90
9448;DHT22;4762;48.128;11.376;2023-07-13T07:57:13;18.30;99.90
9448;DHT22;4762;48.128;11.376;2023-07-13T07:59:16;18.30;99.90
9448;DHT22;4762;48.128;11.376;2023-07-13T08:01:18;18.40;99.90
9448;DHT22;4762;48.128;11.376;2023-07-13T08:03:20;18.30;99.90
9448;DHT22;4762;48.128;11.376;2023-07-13T08:05:22;18.30;99.90
9448;DHT22;4762;48.128;11.376;2023-07-13T08:07:25;18.20;99.90
9448;DHT22;4762;48.128;11.376;2023-07-13T08:09:27;18.30;99.90
9448;DHT22;4762;48.128;11.376;2023-07-13T08:11:29;18.20;99.90
9448;DHT22;4762;48.128;11.376;2023-07-13T08:13:31;18.30;99.90
9448;DHT22;4762;48.128;11.376;2023-07-13T08:15:33;18.20;99.90
9448;DHT22;4762;48.128;11.376;2023-07-13T08:17:36;18.10;99.90
9448;DHT22;4762;48.128;11.376;2023-07-13T08:19:38;18.10;99.90
9448;DHT22;4762;48.128;11.376;2023-07-13T08:21:40;18.10;99.90
9448;DHT22;4762;48.128;11.376;2023-07-13T08:23:42;18.10;99.90
9448;DHT22;4762;48.128;11.376;2023-07-13T08:25:50;18.00;99.90
9448;DHT22;4762;48.128;11.376;2023-07-13T08:27:47;18.20;99.90
9448;DHT22;4762;48.128;11.376;2023-07-13T08:29:49;18.30;99.90
9448;DHT22;4762;48.128;11.376;2023-07-13T08:31:52;18.60;99.90
9448;DHT22;4762;48.128;11.376;2023-07-13T08:33:54;18.80;99.90
9448;DHT22;4762;48.128;11.376;2023-07-13T08:35:56;19.50;99.90
9448;DHT22;4762;48.128;11.376;2023-07-13T08:37:59;20.10;99.90
9448;DHT22;4762;48.128;11.376;2023-07-13T08:40:07;20.00;99.90
9448;DHT22;4762;48.128;11.376;2023-07-13T08:42:16;19.80;99.90
9448;DHT22;4762;48.128;11.376;2023-07-13T08:44:22;19.60;99.90
9448;DHT22;4762;48.128;11.376;2023-07-13T08:46:37;19.50;99.90
9448;DHT22;4762;48.128;11.376;2023-07-13T08:48:41;19.20;99.90
9448;DHT22;4762;48.128;11.376;2023-07-13T08:50:49;19.10;99.90
9448;DHT22;4762;48.128;11.376;2023-07-13T08:52:50;19.00;99.90
9448;DHT22;4762;48.128;11.376;2023-07-13T08:54:52;18.80;99.90
9448;DHT22;4762;48.128;11.376;2023-07-13T08:56:55;18.80;99.90
9448;DHT22;4762;48.128;11.376;2023-07-13T08:59:01;18.60;99.90
9448;DHT22;4762;48.128;11.376;2023-07-13T09:01:11;18.70;99.90
9448;DHT22;4762;48.128;11.376;2023-07-13T09:03:12;18.70;99.90
9448;DHT22;4762;48.128;11.376;2023-07-13T09:05:15;18.80;99.90
9448;DHT22;4762;48.128;11.376;2023-07-13T09:07:26;19.20;99.90
9448;DHT22;4762;48.128;11.376;2023-07-13T09:11:56;19.70;99.90
9448;DHT22;4762;48.128;11.376;2023-07-13T09:14:02;19.70;99.90
9448;DHT22;4762;48.128;11.376;2023-07-13T09:16:02;19.60;99.90
9448;DHT22;4762;48.128;11.376;2023-07-13T09:18:18;19.80;99.90
9448;DHT22;4762;48.128;11.376;2023-07-13T09:20:25;19.80;99.90
9448;DHT22;4762;48.128;11.376;2023-07-13T09:22:25;19.90;99.90
9448;DHT22;4762;48.128;11.376;2023-07-13T09:24:36;19.80;99.90
9448;DHT22;4762;48.128;11.376;2023-07-13T09:26:37;19.50;99.90
9448;DHT22;4762;48.128;11.376;2023-07-13T09:28:42;19.40;99.90
9448;DHT22;4762;48.128;11.376;2023-07-13T09:31:00;19.60;99.90
9448;DHT22;4762;48.128;11.376;2023-07-13T09:33:02;19.50;99.90
9448;DHT22;4762;48.128;11.376;2023-07-13T09:35:09;19.40;99.90
9448;DHT22;4762;48.128;11.376;2023-07-13T09:37:09;19.80;99.90
9448;DHT22;4762;48.128;11.376;2023-07-13T09:39:15;20.00;99.90
9448;DHT22;4762;48.128;11.376;2023-07-13T09:43:27;20.20;99.90
9448;DHT22;4762;48.128;11.376;2023-07-13T09:45:30;20.40;99.90
9448;DHT22;4762;48.128;11.376;2023-07-13T09:47:38;20.40;99.90
9448;DHT22;4762;48.128;11.376;2023-07-13T09:49:36;20.50;99.90
9448;DHT22;4762;48.128;11.376;2023-07-13T09:51:40;20.40;99.90
9448;DHT22;4762;48.128;11.376;2023-07-13T09:53:41;20.40;99.90
9448;DHT22;4762;48.128;11.376;2023-07-13T09:55:46;20.50;99.90
9448;DHT22;4762;48.128;11.376;2023-07-13T09:57:52;20.50;99.90
9448;DHT22;4762;48.128;11.376;2023-07-13T09:59:54;20.30;99.90
9448;DHT22;4762;48.128;11.376;2023-07-13T10:01:56;20.70;99.10
9448;DHT22;4762;48.128;11.376;2023-07-13T10:04:01;20.80;96.30
9448;DHT22;4762;48.128;11.376;2023-07-13T10:06:14;21.00;91.70
9448;DHT22;4762;48.128;11.376;2023-07-13T10:08:30;21.50;94.80
9448;DHT22;4762;48.128;11.376;2023-07-13T10:10:33;22.40;97.30
9448;DHT22;4762;48.128;11.376;2023-07-13T10:12:35;21.90;88.50
9448;DHT22;4762;48.128;11.376;2023-07-13T10:14:37;23.10;78.70
9448;DHT22;4762;48.128;11.376;2023-07-13T10:16:40;24.00;75.20
9448;DHT22;4762;48.128;11.376;2023-07-13T10:18:45;23.50;75.20
9448;DHT22;4762;48.128;11.376;2023-07-13T10:20:45;24.10;75.10
9448;DHT22;4762;48.128;11.376;2023-07-13T10:23:02;24.00;68.40
9448;DHT22;4762;48.128;11.376;2023-07-13T10:25:03;23.70;69.30
9448;DHT22;4762;48.128;11.376;2023-07-13T10:27:16;23.40;67.70
9448;DHT22;4762;48.128;11.376;2023-07-13T10:29:15;22.60;70.80
9448;DHT22;4762;48.128;11.376;2023-07-13T10:31:18;22.80;72.60
9448;DHT22;4762;48.128;11.376;2023-07-13T10:33:20;22.60;78.90
9448;DHT22;4762;48.128;11.376;2023-07-13T10:35:22;22.20;74.60
9448;DHT22;4762;48.128;11.376;2023-07-13T10:37:26;21.70;79.00
9448;DHT22;4762;48.128;11.376;2023-07-13T10:39:28;21.90;77.80
9448;DHT22;4762;48.128;11.376;2023-07-13T10:41:29;22.40;77.10
9448;DHT22;4762;48.128;11.376;2023-07-13T10:43:35;22.30;74.80
9448;DHT22;4762;48.128;11.376;2023-07-13T10:45:36;22.60;72.00
9448;DHT22;4762;48.128;11.376;2023-07-13T10:47:43;23.40;73.20
9448;DHT22;4762;48.128;11.376;2023-07-13T10:50:04;23.10;73.10
9448;DHT22;4762;48.128;11.376;2023-07-13T10:52:20;23.10;73.30
9448;DHT22;4762;48.128;11.376;2023-07-13T10:54:19;23.60;69.40
9448;DHT22;4762;48.128;11.376;2023-07-13T10:56:24;23.70;70.50
9448;DHT22;4762;48.128;11.376;2023-07-13T10:58:35;24.00;68.80
9448;DHT22;4762;48.128;11.376;2023-07-13T11:00:42;24.50;65.80
9448;DHT22;4762;48.128;11.376;2023-07-13T11:02:38;24.50;63.40
9448;DHT22;4762;48.128;11.376;2023-07-13T11:04:43;24.90;63.00
9448;DHT22;4762;48.128;11.376;2023-07-13T11:06:45;25.40;58.60
9448;DHT22;4762;48.128;11.376;2023-07-13T11:08:55;25.60;52.50
9448;DHT22;4762;48.128;11.376;2023-07-13T11:10:57;25.60;56.80
9448;DHT22;4762;48.128;11.376;2023-07-13T11:13:00;25.70;58.50
9448;DHT22;4762;48.128;11.376;2023-07-13T11:15:04;25.90;56.60
9448;DHT22;4762;48.128;11.376;2023-07-13T11:19:27;26.50;52.60
9448;DHT22;4762;48.128;11.376;2023-07-13T11:21:29;26.40;54.90
9448;DHT22;4762;48.128;11.376;2023-07-13T11:23:31;25.70;53.50
9448;DHT22;4762;48.128;11.376;2023-07-13T11:25:35;26.30;50.40
9448;DHT22;4762;48.128;11.376;2023-07-13T11:27:38;26.50;50.20
9448;DHT22;4762;48.128;11.376;2023-07-13T11:29:40;27.00;51.70
9448;DHT22;4762;48.128;11.376;2023-07-13T11:31:42;26.10;50.30
9448;DHT22;4762;48.128;11.376;2023-07-13T11:33:49;26.30;50.40
9448;DHT22;4762;48.128;11.376;2023-07-13T11:35:53;25.90;53.30
9448;DHT22;4762;48.128;11.376;2023-07-13T11:37:53;26.10;52.30
9448;DHT22;4762;48.128;11.376;2023-07-13T11:39:56;26.60;51.90
9448;DHT22;4762;48.128;11.376;2023-07-13T11:42:00;25.90;50.70
9448;DHT22;4762;48.128;11.376;2023-07-13T11:44:14;26.60;51.00
9448;DHT22;4762;48.128;11.376;2023-07-13T11:46:20;25.20;57.50
9448;DHT22;4762;48.128;11.376;2023-07-13T11:48:23;25.10;55.50
9448;DHT22;4762;48.128;11.376;2023-07-13T11:50:24;25.40;55.80
9448;DHT22;4762;48.128;11.376;2023-07-13T11:52:29;25.50;56.00
9448;DHT22;4762;48.128;11.376;2023-07-13T11:54:31;26.00;51.70
9448;DHT22;4762;48.128;11.376;2023-07-13T11:56:32;25.80;52.10
9448;DHT22;4762;48.128;11.376;2023-07-13T11:58:34;25.20;51.80
9448;DHT22;4762;48.128;11.376;2023-07-13T12:00:36;25.40;50.90
9448;DHT22;4762;48.128;11.376;2023-07-13T12:02:40;25.20;53.60
9448;DHT22;4762;48.128;11.376;2023-07-13T12:04:42;25.10;50.10
9448;DHT22;4762;48.128;11.376;2023-07-13T12:06:43;24.80;48.60
9448;DHT22;4762;48.128;11.376;2023-07-13T12:08:45;24.80;50.10
9448;DHT22;4762;48.128;11.376;2023-07-13T12:10:47;25.00;51.90
9448;DHT22;4762;48.128;11.376;2023-07-13T12:12:53;25.40;51.80
9448;DHT22;4762;48.128;11.376;2023-07-13T12:14:55;25.70;52.80
9448;DHT22;4762;48.128;11.376;2023-07-13T12:16:57;25.70;51.90
9448;DHT22;4762;48.128;11.376;2023-07-13T12:19:00;25.70;52.90
9448;DHT22;4762;48.128;11.376;2023-07-13T12:21:01;25.70;48.30
9448;DHT22;4762;48.128;11.376;2023-07-13T12:23:05;25.90;54.00
9448;DHT22;4762;48.128;11.376;2023-07-13T12:25:08;26.00;50.40
9448;DHT22;4762;48.128;11.376;2023-07-13T12:27:19;25.50;49.20
9448;DHT22;4762;48.128;11.376;2023-07-13T12:29:18;25.80;48.30
9448;DHT22;4762;48.128;11.376;2023-07-13T12:31:36;25.90;50.00
9448;DHT22;4762;48.128;11.376;2023-07-13T12:33:40;26.30;49.00
9448;DHT22;4762;48.128;11.376;2023-07-13T12:35:46;26.70;50.50
9448;DHT22;4762;48.128;11.376;2023-07-13T12:37:47;26.50;46.00
9448;DHT22;4762;48.128;11.376;2023-07-13T12:39:49;26.70;47.20
9448;DHT22;4762;48.128;11.376;2023-07-13T12:41:52;27.00;49.80
9448;DHT22;4762;48.128;11.376;2023-07-13T12:43:54;26.70;48.40
9448;DHT22;4762;48.128;11.376;2023-07-13T12:45:59;26.50;44.90
9448;DHT22;4762;48.128;11.376;2023-07-13T12:48:05;26.90;49.00
9448;DHT22;4762;48.128;11.376;2023-07-13T12:50:14;26.70;44.10
9448;DHT22;4762;48.128;11.376;2023-07-13T12:52:13;26.60;44.40
9448;DHT22;4762;48.128;11.376;2023-07-13T12:54:16;25.90;43.40
9448;DHT22;4762;48.128;11.376;2023-07-13T12:56:20;25.90;46.80
9448;DHT22;4762;48.128;11.376;2023-07-13T12:58:37;26.20;46.10
9448;DHT22;4762;48.128;11.376;2023-07-13T13:00:38;26.50;43.60
9448;DHT22;4762;48.128;11.376;2023-07-13T13:02:40;27.70;41.10
9448;DHT22;4762;48.128;11.376;2023-07-13T13:04:43;28.20;40.90
9448;DHT22;4762;48.128;11.376;2023-07-13T13:06:47;28.00;39.00
9448;DHT22;4762;48.128;11.376;2023-07-13T13:08:56;27.80;42.40
9448;DHT22;4762;48.128;11.376;2023-07-13T13:11:02;27.60;44.70
9448;DHT22;4762;48.128;11.376;2023-07-13T13:13:03;28.10;42.20
9448;DHT22;4762;48.128;11.376;2023-07-13T13:15:06;28.30;41.80
9448;DHT22;4762;48.128;11.376;2023-07-13T13:17:27;27.50;41.00